Time;durP1;ratioP1;P1;durP2;ratioP2;P2;SDS_P1;SDS_P2;PMS_P1;PMS_P2;Temp;Humidity;BMP_temperature;BMP_pressure;BME280_temperature;BME280_humidity;BME280_pressure;Samples;Min_cycle;Max_cycle;Signal;HPM_P1;HPM_P2
2023/05/16 00:00:20;;;;;;;4.20;1.85;;;;;;;13.27;100.00;97548.56;4975470;28;20042;-61
2023/05/16 00:02:50;;;;;;;3.78;1.70;;;;;;;13.40;100.00;97545.31;4973847;28;20089;-61
2023/05/16 00:05:16;;;;;;;5.72;1.65;;;;;;;13.25;100.00;97527.88;4977260;28;20038;-61
2023/05/16 00:07:51;;;;;;;5.18;1.90;;;;;;;13.24;100.00;97539.31;4985566;28;20030;-61
2023/05/16 00:10:30;;;;;;;3.65;1.55;;;;;;;12.97;100.00;97490.47;5003899;28;20030;-61
2023/05/16 00:13:00;;;;;;;5.03;1.77;;;;;;;13.16;99.18;97536.84;4968297;28;20034;-61
2023/05/16 00:15:28;;;;;;;5.65;1.58;;;;;;;13.04;100.00;97531.28;4973385;28;20032;-61
2023/05/16 00:17:59;;;;;;;5.57;1.90;;;;;;;12.91;100.00;97531.19;4963224;28;20039;-61
2023/05/16 00:20:28;;;;;;;5.45;1.95;;;;;;;12.78;100.00;97528.44;5008058;28;20043;-61
2023/05/16 00:23:00;;;;;;;4.80;1.92;;;;;;;12.92;100.00;97516.31;4980309;28;20022;-61
2023/05/16 00:25:34;;;;;;;3.55;1.48;;;;;;;12.75;100.00;97479.25;4976963;28;20367;-61
2023/05/16 00:27:59;;;;;;;8.57;1.42;;;;;;;13.00;99.90;97516.22;4973899;28;20119;-61
2023/05/16 00:30:24;;;;;;;3.80;1.60;;;;;;;13.01;99.02;97502.16;4974835;28;20036;-61
2023/05/16 00:32:58;;;;;;;3.47;1.40;;;;;;;12.68;97.10;97464.31;4980967;28;20134;-62
2023/05/16 00:35:24;;;;;;;4.40;1.65;;;;;;;12.81;99.83;97497.56;4957553;28;20062;-61
2023/05/16 00:37:53;;;;;;;4.55;1.48;;;;;;;12.76;100.00;97510.38;4971170;28;20530;-61
2023/05/16 00:40:21;;;;;;;3.85;1.50;;;;;;;12.86;99.33;97505.63;4976275;28;20046;-61
2023/05/16 00:42:54;;;;;;;6.03;1.50;;;;;;;12.89;99.40;97504.47;4974023;28;20383;-61
2023/05/16 00:45:22;;;;;;;3.75;1.50;;;;;;;12.79;100.00;97496.13;4981921;28;20085;-61
2023/05/16 00:47:53;;;;;;;5.57;1.70;;;;;;;12.76;98.91;97496.50;4976861;28;20038;-60
2023/05/16 00:50:20;;;;;;;3.45;1.50;;;;;;;12.40;100.00;97450.41;4971234;28;20038;-61
2023/05/16 00:52:46;;;;;;;4.22;1.48;;;;;;;12.65;100.00;97482.97;4979515;28;20066;-60
2023/05/16 00:55:17;;;;;;;4.40;1.50;;;;;;;12.56;100.00;97455.41;4967121;28;20041;-61
2023/05/16 00:57:42;;;;;;;3.42;1.30;;;;;;;12.65;100.00;97446.47;5006381;28;20061;-61
2023/05/16 01:00:11;;;;;;;3.25;1.40;;;;;;;12.46;100.00;97424.41;5008565;28;20942;-60
2023/05/16 01:02:37;;;;;;;4.88;1.85;;;;;;;12.52;100.00;97458.53;4978485;28;20177;-61
2023/05/16 01:05:09;;;;;;;5.53;1.85;;;;;;;12.57;100.00;97457.00;4977554;28;20078;-61
2023/05/16 01:07:48;;;;;;;4.10;1.80;;;;;;;12.81;100.00;97465.44;4980176;28;20584;-61
2023/05/16 01:10:14;;;;;;;4.47;1.77;;;;;;;12.54;100.00;97456.56;4964157;28;20022;-61
2023/05/16 01:12:42;;;;;;;7.38;1.85;;;;;;;12.47;100.00;97461.72;4960113;28;20086;-61
2023/05/16 01:15:19;;;;;;;5.18;2.17;;;;;;;12.42;100.00;97464.06;4975929;28;20069;-61
2023/05/16 01:17:56;;;;;;;5.95;1.70;;;;;;;12.57;100.00;97453.59;4975491;28;20125;-61
2023/05/16 01:20:49;;;;;;;4.60;1.70;;;;;;;12.35;100.00;97445.75;4975213;28;20137;-61
2023/05/16 01:24:01;;;;;;;4.63;1.73;;;;;;;12.34;100.00;97441.53;4971675;28;20046;-61
2023/05/16 01:26:31;;;;;;;4.72;2.00;;;;;;;12.30;100.00;97396.78;5000582;28;20053;-61
2023/05/16 01:28:59;;;;;;;4.38;1.60;;;;;;;12.42;100.00;97436.19;4969280;28;20061;-61
2023/05/16 01:31:27;;;;;;;4.18;1.77;;;;;;;12.30;100.00;97437.66;4976856;28;20142;-61
2023/05/16 01:33:53;;;;;;;4.22;1.50;;;;;;;12.49;100.00;97444.09;4978549;28;20041;-61
2023/05/16 01:36:24;;;;;;;3.38;1.42;;;;;;;12.58;100.00;97434.34;4976366;28;21076;-61
2023/05/16 01:39:02;;;;;;;4.65;2.22;;;;;;;12.41;100.00;97431.16;4968691;28;20354;-61
2023/05/16 01:42:06;;;;;;;5.95;1.45;;;;;;;12.55;100.00;97429.50;4977966;28;20034;-61
2023/05/16 01:45:22;;;;;;;6.38;1.73;;;;;;;12.33;100.00;97426.09;4973499;28;20076;-61
2023/05/16 01:48:06;;;;;;;5.05;1.45;;;;;;;12.24;100.00;97381.06;4919284;29;20824;-61
2023/05/16 01:50:34;;;;;;;3.92;1.45;;;;;;;12.63;100.00;97421.53;4922139;29;20088;-61
2023/05/16 01:53:10;;;;;;;5.00;1.75;;;;;;;12.50;100.00;97420.44;4888922;29;20031;-61
2023/05/16 01:55:49;;;;;;;4.40;1.63;;;;;;;12.68;100.00;97420.00;4921043;29;20449;-61
2023/05/16 01:58:22;;;;;;;4.05;1.20;;;;;;;12.62;100.00;97414.72;4917168;29;20051;-61
2023/05/16 02:00:53;;;;;;;4.55;1.40;;;;;;;12.49;100.00;97384.13;4935787;28;20039;-61
2023/05/16 02:03:22;;;;;;;5.70;1.77;;;;;;;12.72;100.00;97399.56;4916972;29;20038;-61
2023/05/16 02:05:47;;;;;;;3.90;1.55;;;;;;;12.45;100.00;97417.59;4919444;29;20052;-61
2023/05/16 02:08:15;;;;;;;5.20;1.58;;;;;;;12.27;100.00;97409.38;4886607;29;20043;-61
2023/05/16 02:10:49;;;;;;;3.63;1.60;;;;;;;12.29;100.00;97402.97;4892376;29;20139;-61
2023/05/16 02:13:17;;;;;;;5.30;1.65;;;;;;;11.85;100.00;97353.59;4917412;29;20688;-61
2023/05/16 02:15:43;;;;;;;5.80;1.75;;;;;;;12.09;100.00;97401.97;4920621;29;20126;-61
2023/05/16 02:18:11;;;;;;;5.32;1.75;;;;;;;11.80;100.00;97359.34;4933176;28;20605;-61
2023/05/16 02:20:40;;;;;;;4.15;1.85;;;;;;;12.05;100.00;97398.91;4918694;29;21466;-61
2023/05/16 02:23:05;;;;;;;4.55;2.03;;;;;;;12.03;100.00;97394.88;4925753;28;20063;-61
2023/05/16 02:25:31;;;;;;;5.10;2.00;;;;;;;12.02;100.00;97391.47;4978253;28;20129;-61
2023/05/16 02:27:59;;;;;;;5.47;2.20;;;;;;;11.85;100.00;97354.38;4978808;28;20078;-61
2023/05/16 02:30:30;;;;;;;8.63;2.28;;;;;;;12.04;100.00;97389.47;4961517;28;20616;-61
2023/05/16 02:33:04;;;;;;;5.72;2.28;;;;;;;12.07;100.00;97396.94;4976005;28;20049;-61
2023/05/16 02:35:39;;;;;;;8.32;2.00;;;;;;;12.17;100.00;97393.22;4975613;28;20038;-61
2023/05/16 02:38:08;;;;;;;4.57;1.98;;;;;;;12.09;100.00;97388.94;4979453;28;20107;-61
2023/05/16 02:40:39;;;;;;;4.65;2.22;;;;;;;11.65;100.00;97382.00;4962116;28;20039;-61
2023/05/16 02:43:10;;;;;;;8.57;2.60;;;;;;;11.93;100.00;97380.34;4980266;28;20451;-61
2023/05/16 02:45:41;;;;;;;4.97;2.50;;;;;;;12.00;100.00;97372.59;4979365;28;20483;-61
2023/05/16 02:48:12;;;;;;;5.22;2.22;;;;;;;11.90;100.00;97372.09;4965325;28;20042;-61
2023/05/16 02:50:41;;;;;;;6.30;2.55;;;;;;;11.42;100.00;97366.47;4981421;28;20052;-61
2023/05/16 02:53:15;;;;;;;5.15;2.40;;;;;;;11.52;100.00;97361.81;4974131;28;20466;-61
2023/05/16 02:55:48;;;;;;;4.40;2.10;;;;;;;11.70;100.00;97370.03;4960291;28;20080;-61
2023/05/16 02:58:19;;;;;;;5.50;2.72;;;;;;;11.69;100.00;97371.03;4987655;28;20484;-60
2023/05/16 03:00:44;;;;;;;5.65;2.60;;;;;;;11.72;100.00;97354.25;4978320;28;20062;-61
2023/05/16 03:03:10;;;;;;;6.78;2.45;;;;;;;11.50;100.00;97320.34;4960023;28;20186;-61
2023/05/16 03:05:36;;;;;;;5.65;2.38;;;;;;;11.59;100.00;97362.72;4976578;28;20128;-61
2023/05/16 03:08:07;;;;;;;4.97;2.35;;;;;;;11.29;100.00;97305.44;4981981;28;20456;-61
2023/05/16 03:10:35;;;;;;;5.57;2.38;;;;;;;11.74;100.00;97360.06;4981175;28;20026;-61
2023/05/16 03:13:03;;;;;;;5.18;2.65;;;;;;;11.53;100.00;97325.16;4972216;28;20034;-61
2023/05/16 03:15:28;;;;;;;7.50;3.97;;;;;;;11.47;100.00;97356.34;4975294;28;20038;-61
2023/05/16 03:17:56;;;;;;;6.78;2.53;;;;;;;11.61;100.00;97352.09;4958167;28;20043;-61
2023/05/16 03:20:24;;;;;;;6.38;2.50;;;;;;;11.51;100.00;97352.38;4983250;28;20437;-61
2023/05/16 03:22:52;;;;;;;4.95;2.65;;;;;;;11.66;100.00;97350.56;4975763;28;20484;-60
2023/05/16 03:25:25;;;;;;;5.57;2.50;;;;;;;11.48;100.00;97339.72;4971551;28;20034;-60
2023/05/16 03:27:53;;;;;;;8.02;2.63;;;;;;;11.56;100.00;97337.03;4976223;28;20126;-61
2023/05/16 03:30:24;;;;;;;7.43;2.72;;;;;;;11.47;100.00;97338.91;4964998;28;20027;-61
2023/05/16 03:32:52;;;;;;;8.05;3.13;;;;;;;11.49;100.00;97336.13;4975592;28;20369;-61
2023/05/16 03:35:18;;;;;;;6.65;2.70;;;;;;;11.41;100.00;97344.03;4976321;28;20180;-61
2023/05/16 03:37:46;;;;;;;6.65;3.00;;;;;;;11.26;100.00;97337.06;4960657;28;20052;-61
2023/05/16 03:40:14;;;;;;;5.78;2.63;;;;;;;11.14;100.00;97334.09;4976560;28;20098;-61
2023/05/16 03:42:42;;;;;;;5.65;2.67;;;;;;;11.05;100.00;97327.34;4975547;28;20031;-62
2023/05/16 03:45:08;;;;;;;7.22;2.90;;;;;;;11.40;100.00;97334.63;4983153;28;20105;-61
2023/05/16 03:47:33;;;;;;;6.53;2.92;;;;;;;11.27;100.00;97328.25;4975708;28;20473;-61
2023/05/16 03:49:59;;;;;;;9.60;3.33;;;;;;;11.37;100.00;97330.56;4957978;28;20038;-61
2023/05/16 03:52:28;;;;;;;5.25;2.63;;;;;;;11.35;100.00;97335.16;4965190;28;20034;-60
2023/05/16 03:54:56;;;;;;;7.40;3.10;;;;;;;10.98;100.00;97302.25;4975155;28;20134;-61
2023/05/16 03:57:26;;;;;;;7.28;3.53;;;;;;;10.85;100.00;97315.88;4966013;28;20508;-61
2023/05/16 03:59:52;;;;;;;6.15;3.05;;;;;;;11.15;100.00;97340.91;4976388;28;20049;-61
2023/05/16 04:02:26;;;;;;;7.05;3.35;;;;;;;11.20;100.00;97339.56;4970569;28;20034;-61
2023/05/16 04:04:52;;;;;;;6.28;2.90;;;;;;;11.23;100.00;97328.81;4981734;28;20152;-61
2023/05/16 04:07:19;;;;;;;5.82;3.20;;;;;;;10.97;100.00;97337.88;4963606;28;20671;-61
2023/05/16 04:09:50;;;;;;;6.43;3.20;;;;;;;10.99;100.00;97337.66;4982085;28;20038;-61
2023/05/16 04:12:16;;;;;;;6.05;3.00;;;;;;;11.09;100.00;97315.59;4980958;28;20084;-60
2023/05/16 04:14:46;;;;;;;8.48;3.05;;;;;;;10.87;100.00;97291.28;4971351;28;20580;-61
2023/05/16 04:17:14;;;;;;;7.35;3.67;;;;;;;10.90;100.00;97277.94;4980578;28;20409;-62
2023/05/16 04:19:46;;;;;;;7.15;3.47;;;;;;;11.10;100.00;97293.81;4978835;28;20038;-62
2023/05/16 04:22:16;;;;;;;7.55;3.60;;;;;;;11.26;100.00;97321.44;4979211;28;20076;-61
2023/05/16 04:24:52;;;;;;;7.68;2.70;;;;;;;11.19;100.00;97311.91;4976803;28;20077;-61
2023/05/16 04:27:26;;;;;;;5.40;2.90;;;;;;;10.91;100.00;97266.53;4976049;28;20054;-60
2023/05/16 04:29:55;;;;;;;7.82;3.00;;;;;;;11.29;100.00;97305.44;4959679;28;20112;-62
2023/05/16 04:32:27;;;;;;;7.88;3.50;;;;;;;11.39;100.00;97296.56;4970774;28;20041;-61
2023/05/16 04:34:56;;;;;;;6.80;3.47;;;;;;;11.18;100.00;97266.91;4975467;28;20467;-62
2023/05/16 04:37:23;;;;;;;5.25;2.95;;;;;;;11.46;100.00;97298.28;4977482;28;20058;-61
2023/05/16 04:39:54;;;;;;;8.15;3.15;;;;;;;11.46;100.00;97298.28;4963417;28;20030;-61
2023/05/16 04:42:23;;;;;;;6.85;3.38;;;;;;;11.40;100.00;97290.38;4977322;28;20031;-61
2023/05/16 04:44:49;;;;;;;6.82;3.08;;;;;;;11.49;100.00;97294.50;4981083;28;20469;-61
2023/05/16 04:47:20;;;;;;;8.13;3.10;;;;;;;11.52;100.00;97281.13;4957362;28;20038;-61
2023/05/16 04:49:48;;;;;;;6.20;3.30;;;;;;;11.43;100.00;97290.81;4953048;28;20058;-60
2023/05/16 04:52:19;;;;;;;8.85;3.70;;;;;;;11.42;100.00;97286.59;4992893;28;20044;-61
2023/05/16 04:54:49;;;;;;;7.28;3.55;;;;;;;11.47;100.00;97286.84;4980241;28;20034;-61
2023/05/16 04:57:17;;;;;;;7.32;3.60;;;;;;;11.52;100.00;97281.91;4975619;28;21490;-61
2023/05/16 04:59:48;;;;;;;8.32;3.33;;;;;;;11.77;100.00;97272.94;4977766;28;20034;-61
2023/05/16 05:02:19;;;;;;;7.47;2.78;;;;;;;11.83;100.00;97283.44;4958958;28;20058;-61
2023/05/16 05:04:50;;;;;;;6.72;2.95;;;;;;;11.87;100.00;97276.88;4978967;28;20057;-61
2023/05/16 05:07:31;;;;;;;5.93;2.60;;;;;;;12.03;100.00;97269.81;4979794;28;20474;-61
2023/05/16 05:10:02;;;;;;;5.78;2.70;;;;;;;11.98;100.00;97267.78;4973646;28;20052;-60
2023/05/16 05:12:30;;;;;;;8.07;2.53;;;;;;;11.86;100.00;97232.78;4978896;28;20050;-60
2023/05/16 05:14:55;;;;;;;5.57;2.65;;;;;;;12.06;100.00;97265.03;4977193;28;20699;-61
2023/05/16 05:17:22;;;;;;;6.85;2.65;;;;;;;11.69;100.00;97196.56;4974138;28;20038;-61
2023/05/16 05:19:50;;;;;;;8.88;2.90;;;;;;;11.97;100.00;97234.09;4977608;28;20027;-62
2023/05/16 05:22:18;;;;;;;6.75;2.47;;;;;;;12.24;100.00;97274.22;4950209;28;20129;-62
2023/05/16 05:24:44;;;;;;;5.25;2.00;;;;;;;12.36;96.70;97261.47;4977452;28;20046;-61
2023/05/16 05:27:12;;;;;;;5.18;1.85;;;;;;;12.81;89.58;97275.03;4951237;28;20145;-61
2023/05/16 05:29:38;;;;;;;2.42;0.93;;;;;;;14.08;61.63;97271.09;4960725;28;20520;-61
2023/05/16 05:32:04;;;;;;;2.92;0.98;;;;;;;14.48;59.41;97257.25;4956831;28;20042;-61
2023/05/16 05:34:35;;;;;;;4.70;0.90;;;;;;;14.65;59.04;97260.25;4958655;28;20109;-61
2023/05/16 05:37:01;;;;;;;3.00;0.90;;;;;;;14.68;56.94;97234.50;4961324;28;20053;-62
2023/05/16 05:39:26;;;;;;;2.03;0.70;;;;;;;15.21;53.19;97253.69;4973331;28;20035;-61
2023/05/16 05:41:52;;;;;;;2.72;0.70;;;;;;;15.17;51.97;97222.69;4971078;28;20041;-61
2023/05/16 05:44:17;;;;;;;2.22;0.70;;;;;;;15.42;50.36;97213.28;4973557;28;20018;-62
2023/05/16 05:46:51;;;;;;;2.65;0.82;;;;;;;15.64;50.85;97251.25;4974187;28;20534;-62
2023/05/16 05:49:16;;;;;;;2.28;0.80;;;;;;;15.71;47.26;97196.19;4962152;28;20052;-61
2023/05/16 05:51:50;;;;;;;2.15;0.80;;;;;;;16.06;48.83;97240.34;4959344;28;20027;-61
2023/05/16 05:54:18;;;;;;;1.70;0.70;;;;;;;16.10;48.30;97239.72;4990482;28;20022;-62
2023/05/16 05:56:49;;;;;;;2.50;0.82;;;;;;;16.19;48.34;97236.81;4956996;28;20086;-62
2023/05/16 05:59:17;;;;;;;2.28;0.70;;;;;;;16.19;48.89;97228.94;4969687;28;20041;-61
2023/05/16 06:01:46;;;;;;;1.48;0.60;;;;;;;15.92;47.80;97181.97;4976567;28;20049;-62
2023/05/16 06:04:12;;;;;;;2.55;0.73;;;;;;;16.25;48.96;97218.41;4973301;28;20401;-62
2023/05/16 06:06:40;;;;;;;2.60;0.88;;;;;;;16.19;49.31;97219.28;4964172;28;20046;-62
2023/05/16 06:09:06;;;;;;;2.80;0.80;;;;;;;16.28;48.84;97217.16;4969213;28;20113;-60
2023/05/16 06:11:34;;;;;;;2.65;0.70;;;;;;;16.40;48.26;97219.91;4977728;28;20038;-61
2023/05/16 06:14:06;;;;;;;1.73;0.63;;;;;;;16.35;48.49;97202.16;4973546;28;20038;-61
2023/05/16 06:16:39;;;;;;;2.13;0.70;;;;;;;16.16;48.45;97169.09;4972649;28;20108;-60
2023/05/16 06:19:04;;;;;;;2.78;0.70;;;;;;;16.53;47.50;97207.44;4949333;28;20042;-61
2023/05/16 06:21:33;;;;;;;3.85;1.02;;;;;;;16.61;47.56;97201.13;4965246;28;20709;-60
2023/05/16 06:24:03;;;;;;;2.60;0.80;;;;;;;16.65;49.23;97202.28;4975216;28;20540;-60
2023/05/16 06:26:30;;;;;;;4.15;0.90;;;;;;;16.50;47.05;97179.03;4969991;28;20030;-61
2023/05/16 06:28:56;;;;;;;2.45;0.80;;;;;;;16.79;46.71;97207.41;5004134;28;20054;-61
2023/05/16 06:31:21;;;;;;;2.63;0.90;;;;;;;16.87;45.93;97207.94;4971021;28;20042;-60
2023/05/16 06:33:49;;;;;;;3.47;0.85;;;;;;;16.73;46.23;97174.94;4970341;28;20046;-60
2023/05/16 06:36:14;;;;;;;3.72;0.90;;;;;;;16.68;47.63;97166.94;4967731;28;20468;-61
2023/05/16 06:38:40;;;;;;;2.28;0.80;;;;;;;17.01;49.35;97194.66;4977493;28;20042;-61
2023/05/16 06:41:08;;;;;;;2.13;0.73;;;;;;;17.18;47.00;97208.00;4975563;28;20745;-60
2023/05/16 06:43:33;;;;;;;2.83;0.80;;;;;;;17.16;46.45;97212.66;4969433;28;20026;-61
2023/05/16 06:46:04;;;;;;;3.10;0.90;;;;;;;17.26;46.24;97210.31;4974057;28;20036;-61
2023/05/16 06:48:30;;;;;;;1.83;0.70;;;;;;;17.31;48.52;97199.94;4972861;28;20034;-61
2023/05/16 06:50:58;;;;;;;3.92;0.95;;;;;;;17.26;45.25;97178.78;4974586;28;20027;-61
2023/05/16 06:53:23;;;;;;;3.75;1.02;;;;;;;17.17;47.34;97149.41;4961509;28;20050;-61
2023/05/16 06:55:48;;;;;;;3.15;1.08;;;;;;;17.66;45.55;97196.63;4975727;28;20038;-61
2023/05/16 06:58:19;;;;;;;2.10;0.80;;;;;;;17.67;45.96;97195.63;4962389;28;20495;-61
2023/05/16 07:00:51;;;;;;;2.55;1.00;;;;;;;17.62;45.39;97195.50;4979506;28;21295;-61
2023/05/16 07:03:25;;;;;;;2.30;0.80;;;;;;;17.70;47.56;97183.84;4976281;28;20027;-61
2023/05/16 07:05:52;;;;;;;3.00;1.00;;;;;;;17.44;47.65;97149.06;4975072;28;20074;-61
2023/05/16 07:08:21;;;;;;;2.70;0.93;;;;;;;17.73;46.79;97186.84;4976987;28;20035;-61
2023/05/16 07:10:49;;;;;;;2.67;1.10;;;;;;;17.83;46.65;97188.91;4971414;28;20090;-61
2023/05/16 07:13:18;;;;;;;3.13;1.20;;;;;;;17.60;47.06;97156.28;4959373;28;20157;-61
2023/05/16 07:15:46;;;;;;;2.88;0.93;;;;;;;17.74;45.49;97146.38;4970873;28;20085;-61
2023/05/16 07:18:11;;;;;;;2.92;1.08;;;;;;;17.99;44.28;97188.28;4960304;28;20422;-61
2023/05/16 07:20:51;;;;;;;5.38;1.13;;;;;;;18.15;46.54;97172.88;4976928;28;20482;-61
2023/05/16 07:23:16;;;;;;;3.33;0.90;;;;;;;17.68;45.36;97113.09;4984853;28;20038;-61
2023/05/16 07:25:41;;;;;;;3.42;1.15;;;;;;;18.13;44.86;97173.09;4989671;28;20033;-61
2023/05/16 07:28:09;;;;;;;3.38;0.80;;;;;;;18.22;42.69;97155.94;4971060;28;20058;-61
2023/05/16 07:30:49;;;;;;;2.63;0.95;;;;;;;18.63;40.91;97192.84;4946241;28;20049;-62
2023/05/16 07:33:19;;;;;;;3.08;0.98;;;;;;;18.64;43.28;97197.09;4975204;28;20076;-61
2023/05/16 07:35:47;;;;;;;3.05;0.90;;;;;;;18.62;40.91;97186.78;4975906;28;20102;-62
2023/05/16 07:38:15;;;;;;;3.00;0.93;;;;;;;18.81;41.11;97197.22;4962359;28;20030;-61
2023/05/16 07:40:41;;;;;;;2.08;0.88;;;;;;;18.90;39.62;97187.91;5003245;28;20061;-62
2023/05/16 07:43:09;;;;;;;3.25;1.00;;;;;;;18.98;42.63;97195.47;4970586;28;20116;-62
2023/05/16 07:45:37;;;;;;;3.80;1.08;;;;;;;18.99;40.13;97204.94;4975982;28;20030;-62
2023/05/16 07:48:02;;;;;;;2.33;0.90;;;;;;;18.73;38.96;97156.22;4970117;28;20068;-61
2023/05/16 07:50:36;;;;;;;2.45;0.90;;;;;;;18.98;41.60;97200.72;4985408;28;20058;-61
2023/05/16 07:53:02;;;;;;;2.47;0.90;;;;;;;19.03;39.60;97210.56;4978376;28;20160;-62
2023/05/16 07:55:35;;;;;;;4.03;1.15;;;;;;;18.98;40.04;97211.28;4985584;28;20030;-62
2023/05/16 07:58:00;;;;;;;3.70;0.90;;;;;;;18.98;39.65;97216.53;4974337;28;20035;-61
2023/05/16 08:00:26;;;;;;;3.55;0.90;;;;;;;18.92;39.47;97185.06;4978705;28;20023;-59
2023/05/16 08:02:58;;;;;;;2.50;0.80;;;;;;;19.22;37.42;97245.47;4976150;28;20038;-61
2023/05/16 08:05:23;;;;;;;4.28;1.10;;;;;;;19.19;40.29;97259.09;4960173;28;20033;-61
2023/05/16 08:07:52;;;;;;;4.03;1.30;;;;;;;18.40;49.05;97226.06;4980414;28;20026;-60
2023/05/16 08:10:18;;;;;;;5.43;1.80;;;;;;;18.14;56.85;97234.38;4974231;28;20033;-61
2023/05/16 08:12:43;;;;;;;6.45;3.03;;;;;;;17.86;64.06;97226.09;4975342;28;20116;-61
2023/05/16 08:15:12;;;;;;;8.18;4.18;;;;;;;17.73;68.59;97217.59;4963698;28;20568;-61
2023/05/16 08:17:40;;;;;;;11.10;6.68;;;;;;;17.66;74.25;97247.38;4979534;28;20113;-60
2023/05/16 08:20:09;;;;;;;9.07;6.97;;;;;;;17.58;77.77;97250.31;4981093;28;20041;-60
2023/05/16 08:22:37;;;;;;;13.27;8.77;;;;;;;17.30;80.29;97264.00;4974376;28;20044;-60
2023/05/16 08:25:12;;;;;;;16.65;9.20;;;;;;;17.21;80.49;97234.63;4979734;28;20109;-60
2023/05/16 08:27:40;;;;;;;23.50;10.93;;;;;;;17.39;78.58;97254.78;4978280;28;20057;-60
2023/05/16 08:30:14;;;;;;;14.23;9.52;;;;;;;17.34;81.08;97254.69;4975618;28;20031;-60
2023/05/16 08:32:40;;;;;;;13.70;8.65;;;;;;;17.25;80.51;97250.75;4974076;28;20062;-60
2023/05/16 08:35:06;;;;;;;11.00;8.75;;;;;;;17.21;81.15;97244.31;4980356;28;20774;-60
2023/05/16 08:37:52;;;;;;;10.38;8.18;;;;;;;17.32;80.35;97250.66;4978971;28;20046;-60
2023/05/16 08:40:33;;;;;;;11.52;9.23;;;;;;;17.35;78.82;97250.22;4972195;28;20040;-59
2023/05/16 08:43:06;;;;;;;13.00;9.35;;;;;;;17.38;79.73;97262.94;4962937;28;20053;-60
2023/05/16 08:45:34;;;;;;;10.73;8.15;;;;;;;17.12;78.07;97235.94;4979843;28;20820;-60
2023/05/16 08:48:03;;;;;;;9.85;7.65;;;;;;;17.21;77.00;97239.06;4979045;28;20061;-59
2023/05/16 08:50:35;;;;;;;12.07;7.45;;;;;;;17.62;74.73;97276.97;4986640;28;20104;-59
2023/05/16 08:53:08;;;;;;;10.90;7.10;;;;;;;17.80;73.72;97255.88;4977639;28;20034;-59
2023/05/16 08:55:34;;;;;;;11.20;7.28;;;;;;;18.31;71.24;97281.84;4977637;28;20076;-61
2023/05/16 08:58:01;;;;;;;11.88;8.30;;;;;;;18.28;70.28;97280.50;4976078;28;20050;-61
2023/05/16 09:00:30;;;;;;;10.27;6.78;;;;;;;18.52;69.16;97291.06;4977900;28;20034;-61
2023/05/16 09:03:14;;;;;;;11.20;7.38;;;;;;;18.62;70.33;97288.66;4980952;28;20392;-60
2023/05/16 09:05:52;;;;;;;8.68;6.85;;;;;;;18.88;67.87;97279.53;4980345;28;20093;-60
2023/05/16 09:08:24;;;;;;;9.48;6.20;;;;;;;19.20;66.46;97282.56;4978328;28;20030;-61
2023/05/16 09:11:00;;;;;;;10.27;6.82;;;;;;;19.28;65.64;97286.69;4967642;28;20034;-59
2023/05/16 09:13:27;;;;;;;8.05;5.75;;;;;;;19.28;66.53;97284.03;4976104;28;20797;-61
2023/05/16 09:16:14;;;;;;;10.43;5.82;;;;;;;18.94;67.17;97283.06;4968843;28;20591;-61
2023/05/16 09:18:44;;;;;;;8.75;6.07;;;;;;;18.62;67.68;97278.94;4967301;28;20038;-61
2023/05/16 09:21:24;;;;;;;8.35;5.50;;;;;;;18.35;68.89;97285.66;4978777;28;20026;-61
2023/05/16 09:24:00;;;;;;;8.43;5.43;;;;;;;18.18;69.10;97303.91;4974682;28;20379;-61
2023/05/16 09:26:34;;;;;;;8.05;5.10;;;;;;;18.07;70.69;97295.00;4985952;28;20114;-60
2023/05/16 09:29:06;;;;;;;11.20;5.80;;;;;;;17.91;71.89;97285.09;4973844;28;20100;-60
2023/05/16 09:31:36;;;;;;;9.68;5.40;;;;;;;17.82;70.91;97264.34;4973132;28;20038;-60
2023/05/16 09:34:11;;;;;;;8.90;4.90;;;;;;;18.00;71.55;97283.75;4981742;28;20029;-61
2023/05/16 09:36:41;;;;;;;7.70;4.30;;;;;;;17.99;71.51;97305.81;4972391;28;20030;-61
2023/05/16 09:39:14;;;;;;;8.43;4.25;;;;;;;17.89;71.71;97295.84;4976486;28;20048;-62
2023/05/16 09:41:39;;;;;;;7.30;4.38;;;;;;;17.88;72.31;97311.84;4978342;28;20029;-61
2023/05/16 09:44:06;;;;;;;7.10;4.50;;;;;;;17.75;72.58;97312.78;4976917;28;20045;-59
2023/05/16 09:46:36;;;;;;;7.10;4.03;;;;;;;17.59;73.29;97303.69;4969121;28;20045;-59
2023/05/16 09:49:02;;;;;;;8.48;4.35;;;;;;;17.36;73.98;97273.66;4981047;28;20084;-60
2023/05/16 09:51:33;;;;;;;7.45;3.85;;;;;;;17.55;74.27;97305.16;4976022;28;20101;-61
2023/05/16 09:54:01;;;;;;;6.78;4.03;;;;;;;17.52;74.50;97295.88;4974681;28;20142;-60
2023/05/16 09:56:30;;;;;;;8.80;4.07;;;;;;;17.65;74.52;97319.38;4972468;28;20048;-61
2023/05/16 09:58:58;;;;;;;5.57;3.67;;;;;;;17.58;75.54;97307.34;4973296;28;20062;-60
2023/05/16 10:01:32;;;;;;;7.20;4.30;;;;;;;17.55;76.34;97316.47;4984670;28;20038;-61
2023/05/16 10:04:01;;;;;;;8.10;4.18;;;;;;;17.56;76.35;97307.56;4978546;28;20084;-60
2023/05/16 10:06:27;;;;;;;;;;;;;;;17.54;77.34;97303.53;4974784;28;20023;-60
2023/05/16 10:08:52;;;;;;;6.77;3.87;;;;;;;17.50;77.49;97305.81;5003594;28;20683;-60
2023/05/16 10:11:21;;;;;;;7.20;4.40;;;;;;;17.55;77.66;97294.63;4965339;28;20512;-60
2023/05/16 10:13:52;;;;;;;8.90;4.30;;;;;;;17.67;77.76;97306.03;4959978;28;20909;-62
2023/05/16 10:16:21;;;;;;;8.18;4.03;;;;;;;17.72;78.03;97308.75;4972463;28;20045;-61
2023/05/16 10:18:46;;;;;;;7.00;4.35;;;;;;;17.70;77.46;97296.88;4971864;28;20065;-61
2023/05/16 10:21:20;;;;;;;6.22;3.90;;;;;;;17.79;77.12;97308.69;4960221;28;20018;-60
2023/05/16 10:23:49;;;;;;;6.97;4.22;;;;;;;17.95;76.64;97313.34;4976559;28;20041;-61
2023/05/16 10:26:18;;;;;;;7.97;4.57;;;;;;;17.81;75.74;97273.25;5006973;28;20539;-60
2023/05/16 10:28:51;;;;;;;6.68;4.40;;;;;;;18.10;75.13;97307.66;4961356;28;20505;-60
2023/05/16 10:31:16;;;;;;;8.73;4.78;;;;;;;18.13;75.12;97317.75;4976859;28;20041;-60
2023/05/16 10:33:47;;;;;;;6.78;4.10;;;;;;;18.18;76.12;97311.81;4995058;28;20397;-60
2023/05/16 10:36:16;;;;;;;6.93;4.53;;;;;;;18.20;75.76;97307.16;4990389;28;20633;-59
2023/05/16 10:38:44;;;;;;;9.40;4.90;;;;;;;18.05;76.33;97300.47;5006319;28;20034;-60
2023/05/16 10:41:18;;;;;;;9.27;4.90;;;;;;;18.10;76.93;97306.88;4976534;28;20034;-60
2023/05/16 10:44:07;;;;;;;7.45;4.70;;;;;;;18.02;77.29;97305.38;4980442;28;20048;-61
2023/05/16 10:46:42;;;;;;;6.55;4.38;;;;;;;17.82;77.49;97266.97;4968211;28;20035;-60
2023/05/16 10:49:22;;;;;;;7.07;5.10;;;;;;;17.76;78.78;97275.78;4971313;28;20463;-60
2023/05/16 10:52:28;;;;;;;7.72;4.57;;;;;;;17.94;77.72;97308.31;4970575;28;20039;-60
2023/05/16 10:54:55;;;;;;;8.30;4.72;;;;;;;17.85;79.02;97310.44;4992085;28;20066;-59
2023/05/16 10:57:25;;;;;;;7.40;4.53;;;;;;;17.90;78.10;97313.22;4973666;28;20038;-59
2023/05/16 10:59:57;;;;;;;8.65;4.63;;;;;;;17.87;77.73;97321.56;4976272;28;20046;-60
2023/05/16 11:02:33;;;;;;;8.30;4.80;;;;;;;17.57;78.12;97297.84;4990160;28;20026;-61
2023/05/16 11:05:04;;;;;;;6.70;4.47;;;;;;;17.72;78.98;97323.75;4979553;28;20394;-60
2023/05/16 11:07:45;;;;;;;7.38;4.57;;;;;;;17.62;80.03;97332.16;4954572;28;20583;-59
2023/05/16 11:10:15;;;;;;;6.68;4.85;;;;;;;17.50;80.38;97324.19;4974386;28;20030;-61
2023/05/16 11:12:44;;;;;;;;;;;;;;;17.40;82.10;97335.22;4972968;28;20081;-60
2023/05/16 11:15:31;;;;;;;7.32;4.50;;;;;;;17.39;82.01;97328.34;4980503;28;19910;-60
2023/05/16 11:18:21;;;;;;;8.10;4.88;;;;;;;16.97;82.81;97291.44;4971037;28;20759;-60
2023/05/16 11:20:54;;;;;;;8.07;4.63;;;;;;;17.16;82.35;97328.22;4961505;28;20042;-60
2023/05/16 11:23:26;;;;;;;8.02;4.50;;;;;;;17.21;82.44;97341.50;5005709;28;20081;-61
2023/05/16 11:25:56;;;;;;;9.25;4.75;;;;;;;17.03;83.21;97329.16;4973988;28;20029;-61
2023/05/16 11:28:26;;;;;;;7.03;4.78;;;;;;;17.15;83.16;97339.75;4970916;28;20185;-59
2023/05/16 11:31:01;;;;;;;7.40;4.25;;;;;;;17.24;83.88;97347.13;4976323;28;20046;-60
2023/05/16 11:33:28;;;;;;;8.27;4.72;;;;;;;17.01;83.98;97303.13;4992383;28;20683;-60
2023/05/16 11:36:07;;;;;;;7.95;4.90;;;;;;;17.23;84.10;97348.16;4971278;28;20034;-60
2023/05/16 11:38:36;;;;;;;8.52;4.78;;;;;;;17.21;84.78;97344.94;4976475;28;20151;-59
2023/05/16 11:41:07;;;;;;;10.20;4.50;;;;;;;17.15;84.46;97358.94;4978988;28;20062;-62
2023/05/16 11:43:39;;;;;;;7.55;4.38;;;;;;;17.08;86.27;97355.56;4979905;28;20026;-59